createdAt,value
2022-10-19T00:00:15.546Z,60.06
2022-10-19T00:01:15.565Z,45.74
2022-10-19T00:02:15.615Z,49.95
2022-10-19T00:03:18.273Z,41.27
2022-10-19T00:04:16.518Z,42.38
2022-10-19T00:05:15.498Z,53.01
2022-10-19T00:06:15.505Z,49.85
2022-10-19T00:07:15.483Z,43.20
2022-10-19T00:08:15.476Z,44.93
2022-10-19T00:09:15.465Z,48.42
2022-10-19T00:10:15.445Z,66.05
2022-10-19T00:11:15.457Z,48.16
2022-10-19T00:12:15.491Z,46.26
2022-10-19T00:13:15.419Z,47.66
2022-10-19T00:14:15.404Z,48.49
2022-10-19T00:15:15.399Z,46.16
2022-10-19T00:16:15.398Z,40.39
2022-10-19T00:17:15.395Z,43.91
2022-10-19T00:18:15.377Z,43.52
2022-10-19T00:19:15.367Z,43.78
2022-10-19T00:20:15.351Z,48.02
2022-10-19T00:21:15.340Z,63.20
2022-10-19T00:22:15.340Z,49.44
2022-10-19T00:23:15.353Z,51.87
2022-10-19T00:24:15.312Z,48.78
2022-10-19T00:25:15.300Z,40.45
2022-10-19T00:26:15.303Z,58.83
2022-10-19T00:27:15.289Z,42.86
2022-10-19T00:28:15.287Z,44.41
2022-10-19T00:29:15.355Z,52.40
2022-10-19T00:30:15.254Z,52.05
2022-10-19T00:31:15.248Z,48.83
2022-10-19T00:32:15.223Z,52.56
2022-10-19T00:33:15.249Z,51.89
2022-10-19T00:34:15.200Z,50.05
2022-10-19T00:35:15.200Z,46.33
2022-10-19T00:36:15.187Z,41.14
2022-10-19T00:37:15.185Z,40.71
2022-10-19T00:38:15.196Z,48.90
2022-10-19T00:39:15.156Z,46.63
2022-10-19T00:40:15.154Z,46.51
2022-10-19T00:41:15.149Z,47.22
2022-10-19T00:42:16.146Z,44.31
2022-10-19T00:43:15.121Z,51.96
2022-10-19T00:44:15.119Z,41.92
2022-10-19T00:45:15.119Z,40.84
2022-10-19T00:46:15.097Z,43.21
2022-10-19T00:47:15.090Z,46.16
2022-10-19T00:48:15.117Z,44.65
2022-10-19T00:49:15.087Z,45.14
2022-10-19T00:50:15.074Z,42.56
2022-10-19T00:51:15.146Z,42.99
2022-10-19T00:52:15.045Z,54.36
2022-10-19T00:53:15.026Z,43.98
2022-10-19T00:54:15.022Z,49.38
2022-10-19T00:55:15.014Z,44.83
2022-10-19T00:56:15.010Z,41.08
2022-10-19T00:57:14.987Z,43.20
2022-10-19T00:58:14.982Z,42.25
2022-10-19T00:59:14.982Z,45.30
2022-10-19T01:00:14.970Z,52.02
2022-10-19T01:01:15.030Z,46.75
2022-10-19T01:02:14.956Z,44.12
2022-10-19T01:03:14.930Z,48.28
2022-10-19T01:04:14.945Z,48.46
2022-10-19T01:05:14.903Z,50.73
2022-10-19T01:06:14.901Z,49.22
2022-10-19T01:07:14.884Z,60.52
2022-10-19T01:08:14.883Z,50.16
2022-10-19T01:09:14.878Z,48.31
2022-10-19T01:10:14.865Z,58.98
2022-10-19T01:11:14.862Z,52.73
2022-10-19T01:12:14.835Z,49.39
2022-10-19T01:13:14.820Z,43.94
2022-10-19T01:14:14.814Z,43.01
2022-10-19T01:15:14.817Z,53.66
2022-10-19T01:16:14.798Z,51.66
2022-10-19T01:17:14.804Z,47.45
2022-10-19T01:18:14.779Z,53.15
2022-10-19T01:19:14.760Z,50.29
2022-10-19T01:20:14.774Z,60.97
2022-10-19T01:21:14.744Z,50.46
2022-10-19T01:22:14.737Z,45.48
2022-10-19T01:23:14.724Z,46.00
2022-10-19T01:24:14.714Z,50.87
2022-10-19T01:25:14.704Z,50.85
2022-10-19T01:26:14.714Z,43.96
2022-10-19T01:27:14.686Z,48.85
2022-10-19T01:28:14.672Z,46.47
2022-10-19T01:29:14.687Z,46.55
2022-10-19T01:30:15.650Z,48.26
2022-10-19T01:31:14.662Z,47.15
2022-10-19T01:32:14.639Z,61.81
2022-10-19T01:33:14.631Z,48.08
2022-10-19T01:34:14.613Z,48.39
2022-10-19T01:35:14.591Z,48.33
2022-10-19T01:36:14.593Z,48.92
2022-10-19T01:37:14.593Z,53.70
2022-10-19T01:38:14.565Z,47.19
2022-10-19T01:39:14.561Z,49.24
2022-10-19T01:40:14.567Z,42.67
2022-10-19T01:41:14.552Z,50.45
2022-10-19T01:42:14.530Z,45.67
2022-10-19T01:43:14.530Z,48.41
2022-10-19T01:44:14.519Z,48.93
2022-10-19T01:45:14.525Z,42.72
2022-10-19T01:46:14.496Z,46.05
2022-10-19T01:47:14.481Z,49.48
2022-10-19T01:48:14.472Z,56.29
2022-10-19T01:49:14.463Z,51.11
2022-10-19T01:50:15.473Z,46.35
2022-10-19T01:51:14.458Z,46.72
2022-10-19T01:52:14.430Z,44.24
2022-10-19T01:53:14.430Z,49.79
2022-10-19T01:54:14.419Z,49.70
2022-10-19T01:55:14.404Z,51.61
2022-10-19T01:56:14.413Z,48.21
2022-10-19T01:57:14.392Z,46.40
2022-10-19T01:58:14.388Z,46.92
2022-10-19T01:59:14.362Z,42.81
2022-10-19T02:00:14.350Z,50.85
2022-10-19T02:01:14.347Z,41.51
2022-10-19T02:02:14.361Z,44.05
2022-10-19T02:03:14.318Z,52.74
2022-10-19T02:04:14.318Z,62.05
2022-10-19T02:05:14.306Z,43.40
2022-10-19T02:06:14.316Z,45.34
2022-10-19T02:07:14.274Z,51.07
2022-10-19T02:08:14.286Z,41.35
2022-10-19T02:09:14.267Z,47.47
2022-10-19T02:11:14.249Z,56.82
2022-10-19T02:12:14.236Z,46.22
2022-10-19T02:13:14.231Z,47.82
2022-10-19T02:14:14.218Z,44.78
2022-10-19T02:15:14.203Z,48.73
2022-10-19T02:16:14.201Z,46.46
2022-10-19T02:17:14.181Z,56.15
2022-10-19T02:18:14.204Z,51.45
2022-10-19T02:19:14.205Z,47.65
2022-10-19T02:20:14.153Z,51.45
2022-10-19T02:21:14.144Z,54.93
2022-10-19T02:22:14.138Z,50.50
2022-10-19T02:23:14.156Z,45.08
2022-10-19T02:24:14.113Z,50.18
2022-10-19T02:25:14.112Z,59.75
2022-10-19T02:26:14.099Z,54.13
2022-10-19T02:27:14.091Z,62.21
2022-10-19T02:28:14.098Z,49.58
2022-10-19T02:29:14.060Z,47.20
2022-10-19T02:30:14.053Z,59.85
2022-10-19T02:31:14.041Z,53.16
2022-10-19T02:32:14.049Z,54.88
2022-10-19T02:33:14.022Z,54.42
2022-10-19T02:34:14.003Z,50.02
2022-10-19T02:35:14.016Z,49.70
2022-10-19T02:36:13.987Z,47.19
2022-10-19T02:37:14.027Z,48.24
2022-10-19T02:38:13.969Z,50.33
2022-10-19T02:39:13.980Z,49.75
2022-10-19T02:40:13.947Z,49.89
2022-10-19T02:41:13.924Z,52.20
2022-10-19T02:42:14.925Z,60.24
2022-10-19T02:43:13.919Z,47.15
2022-10-19T02:44:13.937Z,47.88
2022-10-19T02:45:13.899Z,50.42
2022-10-19T02:46:45.823Z,49.75
2022-10-19T02:47:13.877Z,52.94
2022-10-19T02:48:14.870Z,52.04
2022-10-19T02:49:13.864Z,57.44
2022-10-19T02:50:13.873Z,54.23
2022-10-19T02:51:13.832Z,61.02
2022-10-19T02:52:13.821Z,57.86
2022-10-19T02:53:13.847Z,48.66
2022-10-19T02:54:13.826Z,52.28
2022-10-19T02:55:14.799Z,55.66
2022-10-19T02:56:13.815Z,55.69
2022-10-19T02:57:13.782Z,52.86
2022-10-19T02:58:13.770Z,55.92
2022-10-19T02:59:13.783Z,62.98
2022-10-19T03:00:13.751Z,53.47
2022-10-19T03:01:13.762Z,55.14
2022-10-19T03:02:13.738Z,54.20
2022-10-19T03:03:13.718Z,62.62
2022-10-19T03:04:13.724Z,52.57
2022-10-19T03:05:13.712Z,52.85
2022-10-19T03:06:13.700Z,49.33
2022-10-19T03:07:13.687Z,52.79
2022-10-19T03:08:13.682Z,55.16
2022-10-19T03:09:13.680Z,62.51
2022-10-19T03:10:13.676Z,56.22
2022-10-19T03:11:13.653Z,49.13
2022-10-19T03:12:13.641Z,59.93
2022-10-19T03:13:13.632Z,55.39
2022-10-19T03:14:13.622Z,57.73
2022-10-19T03:15:13.605Z,59.35
2022-10-19T03:16:13.631Z,58.16
2022-10-19T03:17:13.583Z,59.35
2022-10-19T03:18:13.595Z,54.36
2022-10-19T03:19:13.568Z,53.27
2022-10-19T03:20:13.562Z,53.52
2022-10-19T03:21:13.551Z,61.54
2022-10-19T03:22:13.538Z,65.49
2022-10-19T03:23:13.558Z,50.32
2022-10-19T03:24:13.517Z,63.26
2022-10-19T03:25:13.516Z,51.37
2022-10-19T03:26:13.483Z,54.59
2022-10-19T03:27:13.490Z,65.37
2022-10-19T03:28:13.491Z,54.45
2022-10-19T03:29:13.478Z,52.49
2022-10-19T03:30:13.481Z,57.10
2022-10-19T03:31:13.441Z,56.65
2022-10-19T03:32:13.496Z,55.58
2022-10-19T03:33:13.437Z,54.48
2022-10-19T03:34:13.415Z,62.86
2022-10-19T03:35:13.425Z,59.96
2022-10-19T03:36:13.397Z,57.49
2022-10-19T03:37:13.390Z,54.97
2022-10-19T03:38:13.378Z,56.91
2022-10-19T03:39:13.387Z,54.35
2022-10-19T03:40:13.359Z,56.33
2022-10-19T03:41:13.350Z,60.17
2022-10-19T03:42:13.352Z,58.87
2022-10-19T03:43:13.337Z,56.43
2022-10-19T03:44:13.326Z,56.60
2022-10-19T03:45:13.314Z,54.00
2022-10-19T03:46:13.297Z,55.40
2022-10-19T03:47:13.304Z,56.10
2022-10-19T03:48:13.289Z,57.45
2022-10-19T03:49:13.265Z,56.20
2022-10-19T03:50:13.276Z,57.71
2022-10-19T03:51:13.247Z,64.74
2022-10-19T03:52:13.245Z,57.59
2022-10-19T03:53:13.263Z,56.16
2022-10-19T03:54:13.227Z,56.86
2022-10-19T03:55:13.227Z,66.31
2022-10-19T03:56:13.202Z,67.80
2022-10-19T03:57:13.190Z,57.72
2022-10-19T03:58:13.185Z,56.20
2022-10-19T03:59:13.171Z,56.40
2022-10-19T04:00:13.171Z,65.26
2022-10-19T04:01:13.225Z,52.25
2022-10-19T04:02:13.142Z,55.46
2022-10-19T04:03:13.129Z,60.69
2022-10-19T04:04:13.136Z,57.67
2022-10-19T04:05:13.106Z,56.61
2022-10-19T04:06:15.762Z,57.66
2022-10-19T04:07:13.099Z,56.93
2022-10-19T04:08:13.083Z,56.31
2022-10-19T04:09:13.092Z,57.03
2022-10-19T04:10:13.050Z,57.97
2022-10-19T04:11:13.046Z,58.64
2022-10-19T04:12:13.052Z,59.87
2022-10-19T04:13:13.042Z,58.55
2022-10-19T04:14:19.023Z,58.22
2022-10-19T04:15:14.019Z,55.63
2022-10-19T04:16:12.998Z,57.31
2022-10-19T04:17:12.994Z,57.86
2022-10-19T04:18:12.979Z,60.60
2022-10-19T04:19:12.975Z,54.56
2022-10-19T04:20:12.956Z,63.77
2022-10-19T04:21:12.965Z,60.09
2022-10-19T04:22:12.965Z,59.69
2022-10-19T04:23:12.950Z,58.25
2022-10-19T04:24:12.914Z,58.61
2022-10-19T04:25:12.916Z,59.67
2022-10-19T04:26:12.914Z,58.75
2022-10-19T04:27:12.909Z,58.93
2022-10-19T04:28:12.874Z,59.95
2022-10-19T04:29:12.914Z,60.28
2022-10-19T04:30:12.861Z,66.25
2022-10-19T04:31:12.848Z,61.97
2022-10-19T04:32:12.866Z,63.69
2022-10-19T04:33:12.831Z,62.01
2022-10-19T04:34:12.827Z,58.66
2022-10-19T04:35:12.812Z,59.02
2022-10-19T04:36:12.794Z,59.61
2022-10-19T04:37:12.800Z,60.57
2022-10-19T04:38:12.781Z,58.17
2022-10-19T04:39:12.787Z,67.57
2022-10-19T04:40:15.099Z,57.96
2022-10-19T04:41:13.755Z,59.48
2022-10-19T04:42:12.757Z,58.11
2022-10-19T04:43:12.730Z,59.91
2022-10-19T04:44:12.741Z,57.97
2022-10-19T04:45:12.709Z,59.73
2022-10-19T04:46:12.698Z,65.78
2022-10-19T04:47:12.689Z,59.48
2022-10-19T04:48:15.052Z,57.56
2022-10-19T04:49:16.461Z,60.46
2022-10-19T04:50:13.662Z,59.12
2022-10-19T04:51:12.676Z,60.87
2022-10-19T04:52:12.648Z,61.35
2022-10-19T04:53:12.836Z,59.05
2022-10-19T04:54:12.621Z,56.17
2022-10-19T04:55:12.613Z,59.29
2022-10-19T04:56:12.615Z,58.45
2022-10-19T04:57:12.589Z,58.12
2022-10-19T04:58:12.581Z,58.12
2022-10-19T04:59:12.590Z,64.81
2022-10-19T05:00:12.563Z,61.28
2022-10-19T05:01:12.651Z,59.63
2022-10-19T05:02:12.536Z,59.76
2022-10-19T05:03:12.526Z,60.86
2022-10-19T05:04:12.553Z,64.90
2022-10-19T05:05:12.526Z,61.84
2022-10-19T05:06:12.501Z,59.98
2022-10-19T05:07:12.481Z,66.07
2022-10-19T05:08:12.567Z,59.17
2022-10-19T05:09:12.474Z,67.27
2022-10-19T05:10:12.482Z,67.28
2022-10-19T05:11:12.459Z,61.18
2022-10-19T05:12:12.445Z,62.03
2022-10-19T05:13:12.454Z,64.19
2022-10-19T05:14:12.444Z,60.81
2022-10-19T05:15:12.415Z,59.57
2022-10-19T05:16:12.400Z,59.17
2022-10-19T05:17:12.388Z,60.16
2022-10-19T05:18:12.375Z,60.47
2022-10-19T05:19:12.388Z,60.79
2022-10-19T05:20:12.356Z,61.02
2022-10-19T05:21:12.343Z,65.60
2022-10-19T05:22:12.362Z,60.90
2022-10-19T05:23:12.336Z,61.31
2022-10-19T05:24:12.314Z,66.21
2022-10-19T05:25:12.972Z,61.18
2022-10-19T05:26:12.294Z,59.81
2022-10-19T05:27:12.311Z,60.66
2022-10-19T05:28:12.289Z,65.79
2022-10-19T05:29:12.300Z,66.20
2022-10-19T05:30:12.258Z,62.77
2022-10-19T05:31:12.250Z,60.58
2022-10-19T05:32:12.228Z,62.59
2022-10-19T05:33:12.248Z,61.74
2022-10-19T05:34:12.217Z,60.55
2022-10-19T05:35:12.197Z,59.70
2022-10-19T05:36:12.186Z,63.71
2022-10-19T05:37:12.182Z,60.50
2022-10-19T05:38:12.185Z,59.72
2022-10-19T05:39:12.154Z,60.23
2022-10-19T05:40:12.157Z,61.40
2022-10-19T05:41:12.143Z,60.73
2022-10-19T05:42:12.162Z,60.08
2022-10-19T05:43:12.144Z,72.97
2022-10-19T05:44:12.113Z,62.06
2022-10-19T05:45:12.106Z,61.09
2022-10-19T05:46:12.099Z,59.70
2022-10-19T05:47:12.094Z,60.24
2022-10-19T05:48:12.101Z,59.45
2022-10-19T05:49:12.072Z,60.10
2022-10-19T05:50:12.076Z,65.55
2022-10-19T05:51:12.045Z,62.00
2022-10-19T05:52:12.034Z,62.95
2022-10-19T05:53:12.043Z,62.75
2022-10-19T05:54:12.024Z,69.62
2022-10-19T05:55:12.002Z,60.79
2022-10-19T05:56:11.994Z,61.74
2022-10-19T05:57:11.985Z,66.69
2022-10-19T05:58:11.992Z,60.82
2022-10-19T05:59:11.984Z,60.01
2022-10-19T06:00:11.964Z,60.74
2022-10-19T06:01:11.941Z,60.83
2022-10-19T06:02:11.952Z,59.59
2022-10-19T06:03:11.940Z,60.54
2022-10-19T06:04:12.004Z,61.58
2022-10-19T06:05:11.907Z,64.23
2022-10-19T06:06:11.906Z,63.15
2022-10-19T06:07:11.882Z,60.47
2022-10-19T06:08:11.880Z,65.31
2022-10-19T06:09:11.909Z,59.81
2022-10-19T06:10:11.864Z,59.44
2022-10-19T06:11:11.856Z,60.13
2022-10-19T06:12:11.841Z,61.03
2022-10-19T06:13:11.822Z,61.58
2022-10-19T06:14:11.843Z,60.29
2022-10-19T06:15:11.815Z,58.24
2022-10-19T06:16:11.821Z,64.21
2022-10-19T06:17:11.801Z,63.95
2022-10-19T06:18:11.784Z,64.39
2022-10-19T06:19:11.763Z,61.17
2022-10-19T06:20:11.770Z,58.96
2022-10-19T06:21:11.751Z,60.89
2022-10-19T06:22:11.760Z,62.61
2022-10-19T06:23:11.741Z,61.13
2022-10-19T06:24:11.714Z,63.74
2022-10-19T06:25:11.723Z,61.19
2022-10-19T06:26:11.700Z,60.21
2022-10-19T06:27:11.733Z,60.90
2022-10-19T06:28:11.685Z,60.64
2022-10-19T06:29:11.667Z,66.37
2022-10-19T06:30:11.683Z,62.44
2022-10-19T06:31:11.650Z,58.77
2022-10-19T06:32:11.653Z,59.49
2022-10-19T06:33:11.645Z,59.28
2022-10-19T06:34:11.654Z,64.72
2022-10-19T06:35:11.623Z,58.83
2022-10-19T06:36:11.610Z,60.03
2022-10-19T06:37:11.590Z,59.26
2022-10-19T06:38:11.607Z,60.46
2022-10-19T06:39:11.593Z,61.52
2022-10-19T06:40:11.612Z,59.21
2022-10-19T06:41:11.557Z,59.27
2022-10-19T06:42:11.538Z,61.22
2022-10-19T06:43:11.537Z,59.38
2022-10-19T06:44:11.547Z,64.31
2022-10-19T06:45:11.511Z,57.90
2022-10-19T06:46:11.517Z,56.81
2022-10-19T06:47:11.503Z,60.02
2022-10-19T06:48:11.487Z,58.39
2022-10-19T06:49:11.479Z,66.75
2022-10-19T06:50:11.478Z,57.81
2022-10-19T06:51:11.464Z,59.26
2022-10-19T06:52:11.445Z,70.37
2022-10-19T06:53:11.440Z,61.28
2022-10-19T06:54:11.443Z,60.08
2022-10-19T06:55:11.444Z,58.83
2022-10-19T06:56:11.449Z,63.29
2022-10-19T06:57:11.508Z,60.98
2022-10-19T06:58:11.380Z,57.86
2022-10-19T06:59:11.367Z,59.15
2022-10-19T07:00:11.383Z,67.65
2022-10-19T07:01:11.403Z,57.47
2022-10-19T07:02:11.353Z,56.82
2022-10-19T07:03:11.334Z,59.57
2022-10-19T07:04:11.330Z,61.24
2022-10-19T07:05:11.314Z,60.16
2022-10-19T07:06:11.321Z,58.21
2022-10-19T07:07:11.386Z,57.75
2022-10-19T07:08:11.303Z,66.79
2022-10-19T07:09:11.275Z,60.27
2022-10-19T07:10:11.299Z,59.43
2022-10-19T07:11:11.266Z,61.40
2022-10-19T07:12:11.259Z,59.65
2022-10-19T07:13:11.327Z,67.15
2022-10-19T07:14:11.231Z,60.10
2022-10-19T07:15:11.257Z,61.25
2022-10-19T07:16:15.788Z,59.39
2022-10-19T07:17:12.267Z,60.75
2022-10-19T07:18:11.219Z,60.07
2022-10-19T07:19:11.178Z,59.84
2022-10-19T07:20:11.166Z,58.32
2022-10-19T07:21:11.166Z,61.75
2022-10-19T07:22:13.523Z,61.19
2022-10-19T07:23:12.131Z,59.42
2022-10-19T07:24:11.119Z,59.51
2022-10-19T07:25:11.132Z,60.78
2022-10-19T07:26:11.133Z,59.59
2022-10-19T07:27:11.199Z,59.22
2022-10-19T07:28:11.100Z,66.31
2022-10-19T07:29:11.080Z,62.92
2022-10-19T07:30:11.072Z,58.89
2022-10-19T07:31:11.063Z,59.63
2022-10-19T07:32:11.051Z,59.51
2022-10-19T07:33:11.113Z,58.07
2022-10-19T07:34:11.028Z,64.15
2022-10-19T07:35:11.019Z,60.71
2022-10-19T07:36:11.013Z,60.35
2022-10-19T07:37:11.043Z,59.75
2022-10-19T07:38:10.985Z,60.10
2022-10-19T07:39:10.968Z,61.93
2022-10-19T07:40:10.963Z,61.81
2022-10-19T07:41:10.956Z,59.54
2022-10-19T07:42:10.987Z,59.50
2022-10-19T07:43:10.931Z,56.89
2022-10-19T07:44:12.161Z,57.93
2022-10-19T07:45:10.925Z,57.49
2022-10-19T07:46:10.903Z,59.77
2022-10-19T07:47:10.936Z,58.48
2022-10-19T07:48:10.904Z,57.04
2022-10-19T07:49:10.872Z,59.76
2022-10-19T07:50:10.863Z,60.20
2022-10-19T07:51:10.847Z,59.72
2022-10-19T07:52:10.843Z,59.77
2022-10-19T07:53:10.863Z,59.40
2022-10-19T07:54:10.827Z,59.12
2022-10-19T07:55:10.824Z,60.58
2022-10-19T07:56:10.808Z,60.51
2022-10-19T07:57:10.814Z,59.13
2022-10-19T07:58:10.788Z,57.83
2022-10-19T07:59:10.802Z,59.02
2022-10-19T08:00:10.766Z,59.02
2022-10-19T08:01:10.763Z,59.27
2022-10-19T08:02:10.834Z,59.62
2022-10-19T08:05:12.349Z,58.39
2022-10-19T08:06:11.727Z,59.23
2022-10-19T08:07:10.700Z,60.05
2022-10-19T08:08:10.689Z,67.24
2022-10-19T08:09:15.590Z,58.82
2022-10-19T08:10:10.670Z,59.67
2022-10-19T08:11:10.663Z,60.47
2022-10-19T08:12:14.801Z,58.06
2022-10-19T08:13:10.710Z,60.80
2022-10-19T08:14:10.632Z,60.69
2022-10-19T08:15:10.630Z,62.81
2022-10-19T08:16:10.630Z,63.72
2022-10-19T08:17:10.611Z,59.94
2022-10-19T08:18:10.614Z,59.39
2022-10-19T08:19:10.608Z,65.84
2022-10-19T08:20:10.625Z,59.34
2022-10-19T08:21:10.564Z,58.78
2022-10-19T08:22:10.581Z,59.23
2022-10-19T08:23:10.569Z,62.71
2022-10-19T08:24:10.533Z,62.04
2022-10-19T08:25:10.534Z,62.34
2022-10-19T08:26:10.519Z,62.45
2022-10-19T08:27:10.519Z,58.08
2022-10-19T08:28:10.527Z,57.28
2022-10-19T08:29:10.487Z,58.58
2022-10-19T08:30:10.477Z,66.06
2022-10-19T08:31:10.474Z,59.53
2022-10-19T08:32:10.467Z,59.11
2022-10-19T08:33:10.478Z,59.81
2022-10-19T08:34:10.463Z,59.03
2022-10-19T08:35:10.968Z,58.18
2022-10-19T08:36:10.450Z,59.30
2022-10-19T08:37:20.116Z,59.76
2022-10-19T08:38:10.397Z,59.55
2022-10-19T08:39:10.395Z,59.37
2022-10-19T08:40:10.395Z,58.72
2022-10-19T08:41:10.362Z,59.68
2022-10-19T08:42:10.354Z,59.85
2022-10-19T08:43:10.373Z,60.82
2022-10-19T08:44:10.407Z,59.68
2022-10-19T08:45:10.332Z,58.19
2022-10-19T08:46:42.220Z,59.49
2022-10-19T08:47:12.323Z,66.24
2022-10-19T08:48:10.308Z,60.05
2022-10-19T08:49:10.287Z,59.47
2022-10-19T08:50:10.287Z,60.45
2022-10-19T08:51:10.286Z,60.73
2022-10-19T08:52:10.276Z,61.70
2022-10-19T08:53:10.255Z,58.90
2022-10-19T08:54:10.242Z,59.11
2022-10-19T08:55:10.260Z,61.85
2022-10-19T08:56:12.408Z,61.72
2022-10-19T08:57:11.231Z,59.71
2022-10-19T08:58:10.199Z,59.89
2022-10-19T08:59:10.203Z,60.96
2022-10-19T09:00:10.176Z,59.67
2022-10-19T09:01:10.178Z,60.14
2022-10-19T09:02:10.161Z,59.98
2022-10-19T09:03:10.176Z,58.58
2022-10-19T09:04:10.126Z,58.24
2022-10-19T09:05:10.163Z,60.90
2022-10-19T09:06:10.118Z,60.22
2022-10-19T09:07:10.103Z,59.70
2022-10-19T09:08:13.043Z,61.36
2022-10-19T09:09:11.088Z,60.22
2022-10-19T09:10:10.098Z,59.42
2022-10-19T09:11:10.068Z,58.13
2022-10-19T09:12:10.052Z,56.01
2022-10-19T09:13:10.076Z,59.04
2022-10-19T09:14:10.032Z,58.80
2022-10-19T09:15:10.017Z,57.48
2022-10-19T09:16:10.020Z,60.10
2022-10-19T09:17:09.999Z,61.24
2022-10-19T09:18:10.007Z,59.73
2022-10-19T09:19:09.982Z,60.42
2022-10-19T09:20:09.970Z,59.35
2022-10-19T09:21:09.951Z,58.28
2022-10-19T09:22:09.959Z,58.43
2022-10-19T09:23:13.343Z,59.25
2022-10-19T09:24:10.954Z,59.80
2022-10-19T09:25:09.925Z,59.70
2022-10-19T09:26:09.915Z,63.80
2022-10-19T09:27:09.902Z,59.30
2022-10-19T09:28:09.888Z,58.60
2022-10-19T09:29:09.897Z,64.61
2022-10-19T09:30:09.866Z,66.12
2022-10-19T09:31:09.850Z,58.61
2022-10-19T09:32:09.856Z,59.63
2022-10-19T09:33:12.026Z,59.09
2022-10-19T09:34:10.831Z,59.48
2022-10-19T09:35:09.833Z,60.20
2022-10-19T09:36:18.213Z,60.00
2022-10-19T09:37:14.325Z,58.35
2022-10-19T09:38:09.786Z,60.00
2022-10-19T09:39:09.776Z,64.76
2022-10-19T09:40:09.790Z,58.42
2022-10-19T09:41:09.742Z,59.28
2022-10-19T09:42:09.752Z,60.28
2022-10-19T09:43:09.732Z,64.48
2022-10-19T09:44:09.726Z,61.02
2022-10-19T09:45:09.710Z,59.01
2022-10-19T09:46:18.728Z,58.41
2022-10-19T09:47:13.639Z,59.70
2022-10-19T09:48:13.105Z,60.36
2022-10-19T09:49:10.669Z,60.54
2022-10-19T09:50:09.659Z,60.06
2022-10-19T09:51:09.662Z,59.15
2022-10-19T09:52:09.637Z,58.93
2022-10-19T09:53:09.626Z,59.81
2022-10-19T09:54:09.620Z,58.78
2022-10-19T09:55:09.606Z,60.18
2022-10-19T09:56:09.609Z,58.74
2022-10-19T09:57:09.580Z,58.51
2022-10-19T09:58:09.609Z,58.09
2022-10-19T09:59:09.568Z,59.97
2022-10-19T10:00:09.553Z,59.08
2022-10-19T10:01:09.551Z,58.11
2022-10-19T10:02:09.566Z,66.10
2022-10-19T10:03:09.506Z,59.86
2022-10-19T10:04:09.517Z,56.58
2022-10-19T10:05:09.517Z,57.65
2022-10-19T10:06:09.483Z,57.48
2022-10-19T10:07:09.495Z,65.91
2022-10-19T10:08:09.475Z,58.74
2022-10-19T10:09:09.536Z,58.08
2022-10-19T10:10:09.498Z,60.51
2022-10-19T10:11:09.433Z,57.38
2022-10-19T10:12:09.430Z,59.93
2022-10-19T10:13:09.416Z,59.08
2022-10-19T10:14:10.065Z,59.26
2022-10-19T10:15:09.405Z,58.53
2022-10-19T10:16:09.381Z,56.96
2022-10-19T10:17:09.383Z,56.49
2022-10-19T10:18:09.389Z,57.88
2022-10-19T10:19:09.362Z,57.86
2022-10-19T10:20:09.365Z,56.21
2022-10-19T10:21:09.370Z,57.19
2022-10-19T10:22:09.334Z,58.41
2022-10-19T10:23:09.323Z,57.19
2022-10-19T10:24:09.349Z,61.29
2022-10-19T10:25:09.308Z,60.48
2022-10-19T10:26:09.288Z,60.63
2022-10-19T10:27:09.283Z,59.64
2022-10-19T10:28:09.278Z,59.83
2022-10-19T10:29:09.286Z,58.23
2022-10-19T10:30:09.261Z,59.32
2022-10-19T10:31:09.256Z,56.84
2022-10-19T10:32:09.254Z,57.08
2022-10-19T10:33:21.117Z,58.34
2022-10-19T10:34:22.599Z,59.81
2022-10-19T10:35:11.215Z,58.26
2022-10-19T10:36:09.221Z,58.82
2022-10-19T10:37:09.187Z,67.10
2022-10-19T10:38:09.172Z,61.17
2022-10-19T10:39:09.161Z,61.00
2022-10-19T10:40:09.147Z,57.69
2022-10-19T10:41:09.169Z,58.84
2022-10-19T10:42:09.131Z,58.94
2022-10-19T10:43:09.114Z,58.98
2022-10-19T10:44:09.099Z,59.50
2022-10-19T10:45:09.091Z,58.35
2022-10-19T10:46:09.095Z,59.23
2022-10-19T10:47:09.097Z,56.71
2022-10-19T10:48:09.076Z,59.47
2022-10-19T10:49:09.062Z,59.60
2022-10-19T10:50:09.071Z,60.22
2022-10-19T10:51:09.055Z,59.27
2022-10-19T10:52:09.059Z,58.73
2022-10-19T10:53:09.030Z,61.04
2022-10-19T10:54:09.014Z,57.96
2022-10-19T10:55:09.005Z,59.11
2022-10-19T10:56:08.979Z,58.41
2022-10-19T10:57:09.126Z,59.14
2022-10-19T10:58:08.980Z,57.90
2022-10-19T10:59:08.967Z,57.34
2022-10-19T11:00:08.965Z,59.66
2022-10-19T11:01:08.939Z,60.09
2022-10-19T11:02:09.001Z,63.03
2022-10-19T11:03:08.922Z,59.56
2022-10-19T11:04:08.926Z,58.70
2022-10-19T11:05:08.905Z,59.95
2022-10-19T11:06:08.898Z,65.37
2022-10-19T11:07:08.882Z,58.79
2022-10-19T11:08:08.891Z,59.99
2022-10-19T11:09:08.933Z,58.44
2022-10-19T11:10:08.848Z,59.09
2022-10-19T11:11:08.825Z,59.11
2022-10-19T11:12:09.844Z,58.75
2022-10-19T11:13:08.812Z,62.38
2022-10-19T11:14:08.851Z,58.64
2022-10-19T11:15:08.819Z,57.77
2022-10-19T11:16:08.793Z,56.63
2022-10-19T11:17:08.786Z,60.85
2022-10-19T11:18:08.807Z,61.11
2022-10-19T11:19:08.818Z,60.38
2022-10-19T11:20:08.758Z,60.05
2022-10-19T11:21:08.754Z,58.06
2022-10-19T11:22:08.725Z,59.30
2022-10-19T11:23:08.721Z,58.59
2022-10-19T11:24:08.721Z,58.07
2022-10-19T11:25:08.713Z,59.29
2022-10-19T11:26:08.690Z,58.79
2022-10-19T11:27:08.670Z,63.71
2022-10-19T11:28:08.669Z,60.38
2022-10-19T11:29:08.670Z,59.77
2022-10-19T11:30:08.662Z,64.81
2022-10-19T11:31:08.633Z,60.50
2022-10-19T11:32:09.554Z,64.54
2022-10-19T11:33:08.597Z,66.92
2022-10-19T11:34:08.598Z,60.06
2022-10-19T11:35:08.603Z,58.90
2022-10-19T11:36:08.584Z,59.44
2022-10-19T11:37:08.575Z,58.85
2022-10-19T11:38:19.753Z,58.65
2022-10-19T11:39:09.572Z,59.29
2022-10-19T11:40:08.537Z,58.97
2022-10-19T11:41:23.869Z,58.42
2022-10-19T11:42:10.528Z,58.14
2022-10-19T11:43:08.517Z,59.13
2022-10-19T11:44:08.512Z,60.72
2022-10-19T11:45:09.097Z,65.62
2022-10-19T11:46:09.945Z,58.36
2022-10-19T11:47:08.467Z,58.96
2022-10-19T11:48:08.453Z,58.68
2022-10-19T11:49:08.465Z,64.34
2022-10-19T11:51:21.009Z,58.25
2022-10-19T11:52:10.415Z,57.99
2022-10-19T11:53:08.418Z,58.61
2022-10-19T11:54:13.769Z,59.64
2022-10-19T11:55:08.394Z,58.91
2022-10-19T11:56:08.399Z,58.74
2022-10-19T11:57:11.516Z,58.63
2022-10-19T11:58:09.372Z,58.48
2022-10-19T11:59:08.409Z,56.09
2022-10-19T12:00:14.549Z,59.96
2022-10-19T12:01:10.342Z,58.20
2022-10-19T12:02:08.399Z,59.52
2022-10-19T12:03:08.307Z,68.85
2022-10-19T12:04:08.297Z,63.03
2022-10-19T12:05:09.297Z,60.14
2022-10-19T12:06:08.293Z,60.52
2022-10-19T12:07:08.285Z,59.10
2022-10-19T12:08:08.309Z,59.39
2022-10-19T12:09:08.364Z,59.86
2022-10-19T12:10:08.230Z,58.63
2022-10-19T12:11:08.227Z,58.73
2022-10-19T12:12:08.299Z,58.98
2022-10-19T12:13:08.207Z,59.30
2022-10-19T12:14:08.198Z,59.14
2022-10-19T12:15:08.184Z,57.68
2022-10-19T12:16:08.173Z,58.16
2022-10-19T12:17:08.236Z,58.98
2022-10-19T12:18:08.147Z,59.37
2022-10-19T12:19:08.150Z,59.29
2022-10-19T12:20:08.150Z,60.41
2022-10-19T12:21:08.125Z,58.55
2022-10-19T12:22:08.104Z,58.96
2022-10-19T12:23:08.125Z,60.34
2022-10-19T12:24:08.093Z,60.83
2022-10-19T12:25:08.105Z,58.61
2022-10-19T12:26:08.125Z,60.92
2022-10-19T12:27:08.069Z,59.34
2022-10-19T12:28:08.096Z,61.55
2022-10-19T12:29:08.051Z,62.58
2022-10-19T12:30:08.043Z,59.67
2022-10-19T12:31:08.031Z,59.60
2022-10-19T12:32:08.017Z,58.90
2022-10-19T12:33:08.002Z,59.08
2022-10-19T12:34:08.018Z,59.66
2022-10-19T12:35:08.005Z,58.22
2022-10-19T12:36:07.974Z,59.06
2022-10-19T12:37:07.947Z,61.13
2022-10-19T12:38:07.945Z,65.21
2022-10-19T12:39:08.022Z,60.04
2022-10-19T12:40:07.931Z,60.41
2022-10-19T12:41:07.924Z,59.62
2022-10-19T12:42:07.904Z,61.73
2022-10-19T12:43:07.921Z,63.43
2022-10-19T12:44:07.891Z,59.94
2022-10-19T12:45:07.880Z,60.01
2022-10-19T12:46:07.863Z,58.25
2022-10-19T12:47:07.858Z,59.13
2022-10-19T12:48:07.867Z,59.10
2022-10-19T12:49:07.853Z,60.52
2022-10-19T12:50:07.883Z,60.43
2022-10-19T12:51:07.814Z,60.38
2022-10-19T12:52:07.804Z,58.72
2022-10-19T12:53:07.793Z,59.79
2022-10-19T12:54:07.797Z,68.70
2022-10-19T12:55:07.806Z,80.80
2022-10-19T12:56:07.776Z,73.34